createdAt,value
2019-04-26T00:01:31.548Z,14.50
2019-04-26T00:04:02.211Z,14.30
2019-04-26T00:06:32.748Z,14.20
2019-04-26T00:09:22.181Z,14.40
2019-04-26T00:12:00.404Z,14.60
2019-04-26T00:14:58.769Z,14.60
2019-04-26T00:17:35.830Z,14.50
2019-04-26T00:20:07.012Z,14.00
2019-04-26T00:22:37.340Z,14.10
2019-04-26T00:25:07.989Z,14.10
2019-04-26T00:27:38.222Z,14.20
2019-04-26T00:30:08.904Z,14.20
2019-04-26T00:32:39.678Z,14.30
2019-04-26T00:35:11.608Z,14.00
2019-04-26T00:37:43.095Z,13.90
2019-04-26T00:40:14.334Z,13.50
2019-04-26T00:42:46.338Z,13.30
2019-04-26T00:45:16.793Z,13.10
2019-04-26T00:47:48.212Z,13.00
2019-04-26T00:50:19.137Z,13.30
2019-04-26T00:52:50.501Z,13.50
2019-04-26T00:55:22.160Z,13.60
2019-04-26T00:57:53.355Z,13.50
2019-04-26T01:00:24.644Z,13.20
2019-04-26T01:02:56.641Z,12.70
2019-04-26T01:05:28.059Z,12.50
2019-04-26T01:07:58.421Z,12.30
2019-04-26T01:10:29.034Z,12.30
2019-04-26T01:12:59.396Z,12.50
2019-04-26T01:15:30.016Z,12.40
2019-04-26T01:18:00.670Z,12.30
2019-04-26T01:20:34.032Z,12.70
2019-04-26T01:23:07.863Z,12.60
2019-04-26T01:26:06.849Z,12.80
2019-04-26T01:28:51.189Z,12.50
2019-04-26T01:31:21.893Z,12.50
2019-04-26T01:33:56.210Z,12.50
2019-04-26T01:36:28.494Z,12.50
2019-04-26T01:39:06.200Z,12.50
2019-04-26T01:41:46.128Z,12.70
2019-04-26T01:44:24.650Z,12.80
2019-04-26T01:46:55.538Z,12.90
2019-04-26T01:49:26.633Z,12.80
2019-04-26T01:52:08.705Z,13.00
2019-04-26T01:54:43.737Z,12.90
2019-04-26T01:57:16.846Z,12.90
2019-04-26T01:59:54.199Z,13.00
2019-04-26T02:02:52.343Z,13.00
2019-04-26T02:05:25.810Z,12.90
2019-04-26T02:07:57.297Z,12.70
2019-04-26T02:10:30.726Z,12.90
2019-04-26T02:13:01.828Z,12.60
2019-04-26T02:15:33.875Z,12.70
2019-04-26T02:18:05.068Z,12.40
2019-04-26T02:21:04.756Z,12.40
2019-04-26T02:23:44.503Z,12.50
2019-04-26T02:26:34.890Z,12.50
2019-04-26T02:29:08.456Z,12.20
2019-04-26T02:31:40.651Z,12.20
2019-04-26T02:34:11.944Z,12.20
2019-04-26T02:36:56.918Z,12.30
2019-04-26T02:39:20.632Z,12.30
2019-04-26T02:41:55.672Z,12.40
2019-04-26T02:44:32.994Z,12.40
2019-04-26T02:47:43.192Z,12.50
2019-04-26T02:50:20.422Z,12.40
2019-04-26T02:53:05.297Z,12.30
2019-04-26T02:56:13.365Z,12.30
2019-04-26T02:59:31.707Z,12.30
2019-04-26T03:02:05.892Z,12.60
2019-04-26T03:04:39.689Z,12.70
2019-04-26T03:07:20.361Z,12.70
2019-04-26T03:09:52.170Z,12.70
2019-04-26T03:12:27.762Z,12.90
2019-04-26T03:15:13.693Z,13.20
2019-04-26T03:18:02.350Z,13.20
2019-04-26T03:20:40.103Z,12.90
2019-04-26T03:23:58.260Z,12.70
2019-04-26T03:26:49.537Z,12.80
2019-04-26T03:30:19.775Z,13.00
2019-04-26T03:33:12.885Z,13.00
2019-04-26T03:36:17.520Z,12.90
2019-04-26T03:39:44.484Z,12.90
2019-04-26T03:43:25.957Z,13.00
2019-04-26T03:46:30.384Z,13.00
2019-04-26T03:49:40.056Z,12.90
2019-04-26T03:53:11.117Z,12.70
2019-04-26T03:56:30.654Z,12.70
2019-04-26T03:59:56.015Z,12.30
2019-04-26T04:02:53.258Z,12.30
2019-04-26T04:05:37.538Z,12.60
2019-04-26T04:08:12.925Z,12.70
2019-04-26T04:10:52.989Z,12.80
2019-04-26T04:13:59.167Z,12.90
2019-04-26T04:17:51.590Z,12.80
2019-04-26T04:21:17.755Z,12.90
2019-04-26T04:24:06.307Z,12.90
2019-04-26T04:27:03.264Z,12.90
2019-04-26T04:30:09.697Z,13.00
2019-04-26T04:33:31.756Z,13.10
2019-04-26T04:36:13.563Z,13.20
2019-04-26T04:39:13.377Z,13.10
2019-04-26T04:42:50.134Z,13.20
2019-04-26T04:46:25.077Z,13.40
2019-04-26T04:49:32.667Z,13.10
2019-04-26T04:52:18.348Z,12.80
2019-04-26T04:55:07.044Z,13.00
2019-04-26T04:58:05.237Z,13.10
2019-04-26T05:01:32.034Z,12.90
2019-04-26T05:04:23.656Z,12.80
2019-04-26T05:07:45.037Z,12.70
2019-04-26T05:10:32.561Z,12.70
2019-04-26T05:13:46.366Z,12.60
2019-04-26T05:17:10.863Z,12.60
2019-04-26T05:20:26.999Z,12.50
2019-04-26T05:23:55.526Z,12.20
2019-04-26T05:27:44.240Z,12.30
2019-04-26T05:31:09.764Z,12.20
2019-04-26T05:34:38.414Z,12.10
2019-04-26T05:37:37.203Z,12.00
2019-04-26T05:40:49.723Z,12.10
2019-04-26T05:44:16.580Z,12.30
2019-04-26T05:47:26.925Z,12.20
2019-04-26T05:51:15.151Z,12.20
2019-04-26T05:54:45.744Z,12.20
2019-04-26T05:58:19.968Z,12.40
2019-04-26T06:01:41.202Z,12.10
2019-04-26T06:04:55.195Z,12.20
2019-04-26T06:08:14.835Z,12.20
2019-04-26T06:10:57.817Z,12.20
2019-04-26T06:14:48.400Z,12.30
2019-04-26T06:18:18.447Z,12.30
2019-04-26T06:21:14.559Z,12.00
2019-04-26T06:24:29.347Z,12.00
2019-04-26T06:27:54.469Z,11.80
2019-04-26T06:30:45.570Z,11.80
2019-04-26T06:33:31.778Z,11.90
2019-04-26T06:36:11.538Z,11.80
2019-04-26T06:39:19.061Z,11.70
2019-04-26T06:42:46.482Z,11.80
2019-04-26T06:46:18.086Z,11.80
2019-04-26T06:49:35.193Z,11.70
2019-04-26T06:52:11.774Z,11.60
2019-04-26T06:55:35.668Z,11.60
2019-04-26T06:59:17.316Z,11.90
2019-04-26T07:02:00.902Z,11.80
2019-04-26T07:05:00.725Z,11.80
2019-04-26T07:07:56.102Z,11.60
2019-04-26T07:11:07.183Z,11.60
2019-04-26T07:14:10.133Z,11.30
2019-04-26T07:17:08.086Z,11.30
2019-04-26T07:20:38.987Z,11.30
2019-04-26T07:23:59.654Z,11.30
2019-04-26T07:27:43.967Z,11.30
2019-04-26T07:30:55.844Z,11.40
2019-04-26T07:34:16.919Z,11.40
2019-04-26T07:37:39.383Z,11.60
2019-04-26T07:41:20.931Z,11.50
2019-04-26T07:44:34.319Z,11.40
2019-04-26T07:47:40.198Z,11.40
2019-04-26T07:50:59.419Z,11.50
2019-04-26T07:54:13.179Z,11.70
2019-04-26T07:57:40.097Z,11.50
2019-04-26T08:00:20.723Z,11.50
2019-04-26T08:03:13.039Z,11.60
2019-04-26T08:06:25.564Z,11.50
2019-04-26T08:09:26.258Z,11.80
2019-04-26T08:11:56.599Z,12.10
2019-04-26T08:15:06.167Z,12.10
2019-04-26T08:18:09.463Z,11.90
2019-04-26T08:20:52.558Z,11.90
2019-04-26T08:23:41.407Z,12.50
2019-04-26T08:26:15.513Z,12.50
2019-04-26T08:28:48.775Z,12.70
2019-04-26T08:31:24.761Z,12.70
2019-04-26T08:34:02.499Z,12.90
2019-04-26T08:36:39.373Z,13.00
2019-04-26T08:39:19.184Z,13.10
2019-04-26T08:41:53.021Z,12.80
2019-04-26T08:44:51.111Z,12.80
2019-04-26T08:47:29.613Z,12.90
2019-04-26T08:50:09.678Z,12.80
2019-04-26T08:52:40.766Z,12.70
2019-04-26T08:55:13.489Z,12.30
2019-04-26T08:57:46.547Z,12.40
2019-04-26T09:00:46.771Z,12.80
2019-04-26T09:03:32.482Z,12.70
2019-04-26T09:06:38.921Z,12.70
2019-04-26T09:09:19.799Z,12.50
2019-04-26T09:11:59.474Z,12.70
2019-04-26T09:14:29.186Z,12.70
2019-04-26T09:16:59.709Z,12.60
2019-04-26T09:19:31.904Z,12.50
2019-04-26T09:22:14.419Z,12.50
2019-04-26T09:25:06.673Z,12.70
2019-04-26T09:27:44.133Z,12.90
2019-04-26T09:30:34.674Z,12.90
2019-04-26T09:33:20.861Z,13.00
2019-04-26T09:35:50.879Z,13.00
2019-04-26T09:38:21.123Z,13.00
2019-04-26T09:40:52.515Z,13.20
2019-04-26T09:43:40.158Z,13.20
2019-04-26T09:46:35.164Z,13.20
2019-04-26T09:49:10.926Z,13.20
2019-04-26T09:51:41.511Z,13.30
2019-04-26T09:54:11.918Z,13.30
2019-04-26T09:56:42.287Z,13.20
2019-04-26T09:59:12.690Z,13.20
2019-04-26T10:01:42.989Z,13.10
2019-04-26T10:04:13.522Z,13.50
2019-04-26T10:06:44.242Z,13.70
2019-04-26T10:09:21.152Z,13.90
2019-04-26T10:11:56.639Z,14.00
2019-04-26T10:14:34.030Z,14.00
2019-04-26T10:17:26.817Z,13.80
2019-04-26T10:19:58.589Z,13.50
2019-04-26T10:22:32.367Z,14.00
2019-04-26T10:25:06.823Z,13.80
2019-04-26T10:27:36.398Z,13.80
2019-04-26T10:30:09.490Z,13.50
2019-04-26T10:32:38.855Z,13.40
2019-04-26T10:35:09.551Z,13.60
2019-04-26T10:37:43.670Z,13.60
2019-04-26T10:40:12.927Z,13.20
2019-04-26T10:42:43.574Z,13.40
2019-04-26T10:45:14.823Z,13.50
2019-04-26T10:47:46.430Z,13.20
2019-04-26T10:50:16.992Z,13.10
2019-04-26T10:52:54.314Z,13.00
2019-04-26T10:55:46.501Z,13.00
2019-04-26T10:58:36.313Z,13.20
2019-04-26T11:01:12.595Z,13.50
2019-04-26T11:03:43.003Z,13.80
2019-04-26T11:06:13.462Z,13.70
2019-04-26T11:08:43.856Z,13.70
2019-04-26T11:11:14.296Z,13.50
2019-04-26T11:13:44.677Z,13.60
2019-04-26T11:16:15.193Z,13.80
2019-04-26T11:18:45.559Z,13.70
2019-04-26T11:21:16.274Z,13.80
2019-04-26T11:23:49.938Z,14.20
2019-04-26T11:26:19.907Z,14.30
2019-04-26T11:28:51.281Z,13.90
2019-04-26T11:31:23.342Z,13.70
2019-04-26T11:34:04.687Z,13.80
2019-04-26T11:36:26.770Z,14.00
2019-04-26T11:38:57.138Z,14.30
2019-04-26T11:41:27.786Z,14.20
2019-04-26T11:43:58.438Z,14.10
2019-04-26T11:46:30.294Z,14.10
2019-04-26T11:49:03.205Z,14.20
2019-04-26T11:51:33.358Z,13.90
2019-04-26T11:54:03.651Z,14.20
2019-04-26T11:56:37.187Z,14.60
2019-04-26T11:59:06.702Z,14.40
2019-04-26T12:01:40.569Z,14.40
2019-04-26T12:04:27.426Z,14.30
2019-04-26T12:07:16.284Z,14.40
2019-04-26T12:09:47.905Z,14.30
2019-04-26T12:12:18.196Z,14.00
2019-04-26T12:14:48.586Z,13.80
2019-04-26T12:17:19.064Z,14.00
2019-04-26T12:19:52.192Z,14.00
2019-04-26T12:22:21.528Z,13.80
2019-04-26T12:24:51.932Z,13.70
2019-04-26T12:27:22.296Z,13.70
2019-04-26T12:29:52.739Z,14.10
2019-04-26T12:32:23.468Z,14.40
2019-04-26T12:34:54.392Z,14.30
2019-04-26T12:37:24.729Z,14.10
2019-04-26T12:39:55.670Z,13.80
2019-04-26T12:42:26.001Z,13.60
2019-04-26T12:45:16.813Z,13.80
2019-04-26T12:47:57.696Z,13.60
2019-04-26T12:50:29.397Z,13.70
2019-04-26T12:53:00.556Z,13.70
2019-04-26T12:55:30.914Z,13.70
2019-04-26T12:58:01.204Z,13.50
2019-04-26T13:00:33.116Z,13.70
2019-04-26T13:03:05.269Z,13.60
2019-04-26T13:05:35.458Z,13.60
2019-04-26T13:08:06.938Z,13.50
2019-04-26T13:11:14.941Z,13.10
2019-04-26T13:13:46.780Z,13.20
2019-04-26T13:16:36.453Z,13.00
2019-04-26T13:19:06.878Z,13.40
2019-04-26T13:21:38.900Z,13.40
2019-04-26T13:24:09.327Z,13.40
2019-04-26T13:26:39.967Z,13.50
2019-04-26T13:29:10.675Z,13.50
2019-04-26T13:31:41.328Z,13.30
2019-04-26T13:34:11.704Z,13.30
2019-04-26T13:36:42.321Z,13.50
2019-04-26T13:39:17.318Z,13.70
2019-04-26T13:41:45.738Z,13.70
2019-04-26T13:44:18.653Z,13.60
2019-04-26T13:47:09.506Z,13.60
2019-04-26T13:49:56.679Z,13.40
2019-04-26T13:52:27.256Z,13.20
2019-04-26T13:54:57.717Z,13.30
2019-04-26T13:57:27.974Z,13.30
2019-04-26T13:59:58.265Z,13.90
2019-04-26T14:02:28.500Z,14.00
2019-04-26T14:04:59.237Z,14.00
2019-04-26T14:07:30.115Z,14.40
2019-04-26T14:10:00.867Z,14.50
2019-04-26T14:12:31.183Z,14.30
2019-04-26T14:15:04.571Z,14.30
2019-04-26T14:17:34.703Z,14.30
2019-04-26T14:20:05.192Z,14.10
2019-04-26T14:22:42.160Z,14.00
2019-04-26T14:25:15.960Z,13.80
2019-04-26T14:27:51.684Z,13.90
2019-04-26T14:30:22.294Z,14.00
2019-04-26T14:32:56.842Z,13.90
2019-04-26T14:35:25.016Z,13.90
2019-04-26T14:37:55.736Z,13.80
2019-04-26T14:40:26.318Z,14.10
2019-04-26T14:43:06.483Z,14.00
2019-04-26T14:45:28.564Z,14.20
2019-04-26T14:48:00.121Z,14.50
2019-04-26T14:50:32.117Z,14.50
2019-04-26T14:53:03.646Z,14.10
2019-04-26T14:55:34.249Z,14.50
2019-04-26T14:58:04.530Z,14.70
2019-04-26T15:00:37.152Z,14.70
2019-04-26T15:03:17.273Z,14.70
2019-04-26T15:06:06.684Z,15.00
2019-04-26T15:08:40.545Z,14.80
2019-04-26T15:11:09.139Z,14.50
2019-04-26T15:13:40.515Z,14.50
2019-04-26T15:16:12.362Z,14.30
2019-04-26T15:18:43.437Z,14.20
2019-04-26T15:21:13.888Z,14.50
2019-04-26T15:23:44.749Z,14.30
2019-04-26T15:26:18.416Z,14.30
2019-04-26T15:28:50.453Z,14.20
2019-04-26T15:31:21.738Z,14.10
2019-04-26T15:33:52.846Z,13.80
2019-04-26T15:36:23.325Z,13.70
2019-04-26T15:38:54.311Z,13.60
2019-04-26T15:41:38.346Z,13.80
2019-04-26T15:44:13.710Z,13.70
2019-04-26T15:47:03.179Z,14.00
2019-04-26T15:49:48.716Z,14.10
2019-04-26T15:52:19.081Z,14.30
2019-04-26T15:54:52.950Z,14.20
2019-04-26T15:57:24.481Z,14.40
2019-04-26T15:59:54.338Z,14.30
2019-04-26T16:02:26.463Z,14.50
2019-04-26T16:04:56.843Z,14.50
2019-04-26T16:07:29.156Z,14.50
2019-04-26T16:09:59.881Z,14.50
2019-04-26T16:12:30.233Z,14.50
2019-04-26T16:15:02.379Z,14.40
2019-04-26T16:17:36.164Z,14.30
2019-04-26T16:20:05.732Z,14.50
2019-04-26T16:22:36.403Z,14.50
2019-04-26T16:25:06.852Z,14.70
2019-04-26T16:27:37.451Z,14.80
2019-04-26T16:30:28.493Z,14.60
2019-04-26T16:33:10.097Z,14.40
2019-04-26T16:35:42.101Z,14.30
2019-04-26T16:38:29.828Z,14.60
2019-04-26T16:41:00.119Z,14.60
2019-04-26T16:43:39.646Z,14.60
2019-04-26T16:46:02.901Z,14.90
2019-04-26T16:48:33.380Z,15.10
2019-04-26T16:53:52.235Z,15.10
2019-04-26T16:56:08.676Z,15.20
2019-04-26T16:58:45.003Z,15.20
2019-04-26T17:01:12.394Z,15.00
2019-04-26T17:03:45.105Z,14.90
2019-04-26T17:06:15.145Z,14.80
2019-04-26T17:08:49.923Z,14.90
2019-04-26T17:09:50.342Z,15.10
2019-04-26T17:11:17.943Z,15.00
2019-04-26T17:13:53.447Z,15.00
2019-04-26T17:16:21.969Z,14.90
2019-04-26T17:18:55.650Z,14.90
2019-04-26T17:21:26.138Z,14.90
2019-04-26T17:24:15.413Z,15.00
2019-04-26T17:26:51.854Z,15.00
2019-04-26T17:29:22.264Z,15.00
2019-04-26T17:31:53.210Z,14.80
2019-04-26T17:34:29.349Z,15.00
2019-04-26T17:36:56.419Z,15.00
2019-04-26T17:39:26.765Z,15.10
2019-04-26T17:41:57.808Z,14.90
2019-04-26T17:44:28.326Z,14.90
2019-04-26T17:47:00.210Z,14.90
2019-04-26T17:49:34.308Z,14.90
2019-04-26T17:52:03.043Z,14.60
2019-04-26T17:54:46.301Z,14.80
2019-04-26T17:57:08.872Z,14.70
2019-04-26T17:59:45.296Z,14.60
2019-04-26T18:02:24.247Z,14.60
2019-04-26T18:04:43.294Z,14.70
2019-04-26T18:07:37.553Z,14.80
2019-04-26T18:09:46.941Z,14.70
2019-04-26T18:12:17.260Z,14.60
2019-04-26T18:14:48.449Z,14.50
2019-04-26T18:17:38.909Z,14.50
2019-04-26T18:20:33.533Z,14.60
2019-04-26T18:23:10.135Z,14.30
2019-04-26T18:25:41.245Z,14.30
2019-04-26T18:28:13.266Z,14.10
2019-04-26T18:30:46.656Z,14.10
2019-04-26T18:33:17.588Z,13.90
2019-04-26T18:35:49.330Z,13.90
2019-04-26T18:38:20.659Z,14.00
2019-04-26T18:41:05.945Z,13.90
2019-04-26T18:43:24.568Z,13.90
2019-04-26T18:46:02.792Z,13.60
2019-04-26T18:48:35.215Z,13.90
2019-04-26T18:51:07.191Z,14.00
2019-04-26T18:54:00.396Z,13.80
2019-04-26T18:56:33.738Z,13.90
2019-04-26T18:59:07.166Z,13.60
2019-04-26T19:01:41.014Z,13.70
2019-04-26T19:04:12.611Z,13.50
2019-04-26T19:06:42.266Z,13.30
2019-04-26T19:09:12.598Z,13.10
2019-04-26T19:11:48.583Z,12.90
2019-04-26T19:14:29.675Z,12.90
2019-04-26T19:17:12.012Z,13.10
2019-04-26T19:20:07.391Z,13.20
2019-04-26T19:22:38.026Z,13.20
2019-04-26T19:25:19.025Z,13.10
2019-04-26T19:27:49.653Z,13.10
2019-04-26T19:30:15.689Z,13.10
2019-04-26T19:32:46.789Z,12.90
2019-04-26T19:35:17.281Z,12.80
2019-04-26T19:37:48.159Z,12.70
2019-04-26T19:40:18.545Z,12.50
2019-04-26T19:42:53.676Z,12.50
2019-04-26T19:45:32.700Z,12.60
2019-04-26T19:48:12.452Z,12.40
2019-04-26T19:50:50.217Z,12.30
2019-04-26T19:53:29.151Z,12.30
2019-04-26T19:56:12.907Z,12.50
2019-04-26T19:58:50.644Z,12.40
2019-04-26T20:01:20.962Z,12.50
2019-04-26T20:03:55.058Z,12.40
2019-04-26T20:06:23.507Z,12.40
2019-04-26T20:08:54.147Z,12.40
2019-04-26T20:11:24.834Z,12.60
2019-04-26T20:13:55.436Z,12.80
2019-04-26T20:16:26.094Z,12.70
2019-04-26T20:18:56.640Z,12.80
2019-04-26T20:21:26.919Z,12.50
2019-04-26T20:23:57.277Z,12.60
2019-04-26T20:26:27.905Z,12.40
2019-04-26T20:28:58.548Z,12.50
2019-04-26T20:31:37.561Z,12.40
2019-04-26T20:34:10.931Z,12.50
2019-04-26T20:36:47.135Z,12.70
2019-04-26T20:39:16.641Z,12.70
2019-04-26T20:41:45.224Z,12.70
2019-04-26T20:44:16.071Z,12.70
2019-04-26T20:46:47.214Z,12.60
2019-04-26T20:49:19.384Z,12.80
2019-04-26T20:51:51.760Z,12.70
2019-04-26T20:54:22.507Z,12.60
2019-04-26T20:56:55.548Z,12.50
2019-04-26T20:59:25.349Z,12.50
2019-04-26T21:02:05.349Z,12.70
2019-04-26T21:04:36.915Z,12.40
2019-04-26T21:07:00.154Z,12.40
2019-04-26T21:09:32.233Z,12.40
2019-04-26T21:12:02.805Z,12.30
2019-04-26T21:14:33.080Z,12.20
2019-04-26T21:17:03.765Z,12.20
2019-04-26T21:19:34.193Z,12.20
2019-04-26T21:22:05.159Z,12.10
2019-04-26T21:24:38.287Z,12.20
2019-04-26T21:27:25.857Z,12.10
2019-04-26T21:30:06.980Z,12.00
2019-04-26T21:32:59.157Z,12.30
2019-04-26T21:35:34.183Z,12.30
2019-04-26T21:38:08.887Z,12.20
2019-04-26T21:40:55.391Z,12.10
2019-04-26T21:43:29.450Z,12.10
2019-04-26T21:46:07.604Z,12.20
2019-04-26T21:48:30.072Z,12.20
2019-04-26T21:51:00.311Z,12.20
2019-04-26T21:53:30.751Z,12.30
2019-04-26T21:56:02.941Z,12.00
2019-04-26T21:58:33.748Z,11.80
2019-04-26T22:01:11.078Z,11.90
2019-04-26T22:03:47.485Z,12.10
2019-04-26T22:06:14.313Z,11.90
2019-04-26T22:08:50.631Z,12.10
2019-04-26T22:11:23.164Z,11.70
2019-04-26T22:14:07.174Z,11.60
2019-04-26T22:16:43.266Z,11.50
2019-04-26T22:19:27.939Z,11.70
2019-04-26T22:22:10.835Z,11.60
2019-04-26T22:24:41.294Z,11.60
2019-04-26T22:27:13.243Z,11.80
2019-04-26T22:29:47.614Z,11.80
2019-04-26T22:32:19.010Z,11.80
2019-04-26T22:34:47.694Z,11.70
2019-04-26T22:37:29.263Z,11.70
2019-04-26T22:39:50.177Z,11.80
2019-04-26T22:42:21.455Z,11.80
2019-04-26T22:44:57.761Z,11.80
2019-04-26T22:47:44.664Z,11.60
2019-04-26T22:50:20.850Z,11.50
2019-04-26T22:52:51.537Z,11.70
2019-04-26T22:55:24.613Z,11.70
2019-04-26T22:57:53.018Z,11.70
2019-04-26T23:00:29.484Z,11.60
2019-04-26T23:03:05.505Z,11.80
2019-04-26T23:05:37.313Z,11.80
2019-04-26T23:08:05.340Z,11.80
2019-04-26T23:10:46.687Z,11.70
2019-04-26T23:13:24.655Z,11.90
2019-04-26T23:16:15.442Z,11.80
2019-04-26T23:19:10.668Z,11.70
2019-04-26T23:21:52.727Z,11.60
2019-04-26T23:24:18.906Z,11.70
2019-04-26T23:26:48.780Z,11.50
2019-04-26T23:29:19.240Z,11.40
2019-04-26T23:31:49.611Z,11.80
2019-04-26T23:34:19.873Z,11.80
2019-04-26T23:36:50.522Z,11.70
2019-04-26T23:39:22.825Z,11.70
2019-04-26T23:41:53.991Z,11.60
2019-04-26T23:44:24.518Z,11.50
2019-04-26T23:47:01.032Z,11.70
2019-04-26T23:49:26.719Z,11.80
2019-04-26T23:51:57.092Z,11.80
2019-04-26T23:54:28.082Z,11.70
2019-04-26T23:56:59.418Z,11.80
2019-04-26T23:59:29.661Z,11.80
